createdAt,value
2022-10-18T00:00:57.327Z,99023.22
2022-10-18T00:03:24.662Z,99022.47
2022-10-18T00:05:52.556Z,99024.50
2022-10-18T00:08:20.482Z,99019.72
2022-10-18T00:10:48.455Z,99021.22
2022-10-18T00:13:15.630Z,99024.03
2022-10-18T00:15:54.941Z,99025.28
2022-10-18T00:18:22.210Z,99030.78
2022-10-18T00:21:03.981Z,99036.75
2022-10-18T00:23:32.686Z,99036.50
2022-10-18T00:26:04.160Z,99043.28
2022-10-18T00:28:32.973Z,99037.03
2022-10-18T00:31:25.041Z,99033.31
2022-10-18T00:33:55.797Z,99042.38
2022-10-18T00:36:23.352Z,99037.16
2022-10-18T00:38:50.658Z,99035.69
2022-10-18T00:41:20.630Z,99048.00
2022-10-18T00:43:52.710Z,99039.22
2022-10-18T00:46:19.850Z,99042.50
2022-10-18T00:48:47.185Z,99037.97
2022-10-18T00:51:15.599Z,99040.19
2022-10-18T00:53:42.866Z,99038.94
2022-10-18T00:56:10.028Z,99043.47
2022-10-18T00:58:37.131Z,99039.75
2022-10-18T01:01:04.367Z,99027.03
2022-10-18T01:03:31.902Z,99044.03
2022-10-18T01:05:59.118Z,99032.28
2022-10-18T01:08:40.380Z,99033.56
2022-10-18T01:11:18.835Z,99027.84
2022-10-18T01:14:02.970Z,99034.63
2022-10-18T01:16:41.546Z,99037.91
2022-10-18T01:19:11.476Z,99031.88
2022-10-18T01:21:55.427Z,99032.63
2022-10-18T01:24:40.800Z,99034.63
2022-10-18T01:27:19.125Z,99030.94
2022-10-18T01:29:58.262Z,99019.47
2022-10-18T01:32:29.006Z,99013.22
2022-10-18T01:34:59.441Z,99024.72
2022-10-18T01:37:28.422Z,99021.25
2022-10-18T01:39:57.327Z,99015.44
2022-10-18T01:42:24.848Z,99016.22
2022-10-18T01:44:52.907Z,99017.94
2022-10-18T01:47:20.495Z,99017.63
2022-10-18T01:49:47.675Z,99028.63
2022-10-18T01:52:16.608Z,99027.63
2022-10-18T01:54:48.465Z,99028.56
2022-10-18T01:57:20.137Z,99028.34
2022-10-18T01:59:51.684Z,99029.88
2022-10-18T02:02:39.115Z,99030.34
2022-10-18T02:05:22.359Z,99023.88
2022-10-18T02:08:00.183Z,99023.44
2022-10-18T02:10:42.112Z,99014.97
2022-10-18T02:13:11.836Z,99029.50
2022-10-18T02:15:41.924Z,99024.72
2022-10-18T02:18:13.140Z,99026.28
2022-10-18T02:20:40.257Z,99017.81
2022-10-18T02:23:08.645Z,99026.78
2022-10-18T02:25:36.218Z,99033.31
2022-10-18T02:28:04.002Z,99033.31
2022-10-18T02:30:57.567Z,99029.31
2022-10-18T02:33:35.856Z,99023.53
2022-10-18T02:36:08.988Z,99029.03
2022-10-18T02:38:36.804Z,99028.78
2022-10-18T02:41:03.900Z,99027.31
2022-10-18T02:43:31.095Z,99027.09
2022-10-18T02:45:58.460Z,99030.78
2022-10-18T02:48:25.779Z,99029.59
2022-10-18T02:50:52.866Z,99037.38
2022-10-18T02:53:20.165Z,99032.38
2022-10-18T02:55:47.280Z,99040.63
2022-10-18T02:58:14.774Z,99032.91
2022-10-18T03:00:41.903Z,99035.38
2022-10-18T03:03:08.979Z,99029.88
2022-10-18T03:05:36.090Z,99035.09
2022-10-18T03:08:03.335Z,99023.81
2022-10-18T03:10:30.505Z,99022.03
2022-10-18T03:12:57.694Z,99023.53
2022-10-18T03:15:25.050Z,99024.28
2022-10-18T03:17:52.204Z,99039.00
2022-10-18T03:20:19.835Z,99041.22
2022-10-18T03:22:47.226Z,99037.69
2022-10-18T03:25:14.400Z,99028.91
2022-10-18T03:27:41.770Z,99027.63
2022-10-18T03:30:11.672Z,99034.28
2022-10-18T03:32:39.089Z,99029.78
2022-10-18T03:35:07.462Z,99038.47
2022-10-18T03:37:34.828Z,99038.47
2022-10-18T03:40:02.924Z,99037.44
2022-10-18T03:42:30.386Z,99044.16
2022-10-18T03:44:57.699Z,99038.34
2022-10-18T03:47:24.892Z,99038.34
2022-10-18T03:49:54.670Z,99041.56
2022-10-18T03:52:24.301Z,99031.53
2022-10-18T03:54:51.437Z,99031.00
2022-10-18T03:57:18.644Z,99034.44
2022-10-18T03:59:45.842Z,99043.91
2022-10-18T04:02:13.008Z,99035.56
2022-10-18T04:04:40.120Z,99040.78
2022-10-18T04:07:07.243Z,99034.53
2022-10-18T04:09:34.548Z,99030.50
2022-10-18T04:12:01.617Z,99026.72
2022-10-18T04:14:29.227Z,99034.22
2022-10-18T04:16:56.562Z,99027.66
2022-10-18T04:19:23.809Z,99022.41
2022-10-18T04:21:50.929Z,99014.38
2022-10-18T04:24:18.105Z,99017.34
2022-10-18T04:26:46.332Z,99018.28
2022-10-18T04:29:13.771Z,99012.28
2022-10-18T04:31:40.848Z,99016.75
2022-10-18T04:34:08.098Z,99016.22
2022-10-18T04:36:35.317Z,99019.94
2022-10-18T04:39:02.480Z,99021.94
2022-10-18T04:41:29.701Z,99019.50
2022-10-18T04:43:56.774Z,99008.78
2022-10-18T04:46:23.961Z,99016.53
2022-10-18T04:48:51.109Z,99003.41
2022-10-18T04:51:18.358Z,98993.59
2022-10-18T04:53:45.553Z,98982.28
2022-10-18T04:56:12.737Z,98986.75
2022-10-18T04:58:39.915Z,98990.25
2022-10-18T05:01:07.766Z,98989.19
2022-10-18T05:03:35.419Z,98992.19
2022-10-18T05:06:03.440Z,98987.44
2022-10-18T05:08:32.057Z,98985.91
2022-10-18T05:11:00.038Z,98972.16
2022-10-18T05:13:27.507Z,98963.41
2022-10-18T05:15:54.645Z,98968.16
2022-10-18T05:18:21.815Z,98966.56
2022-10-18T05:20:48.971Z,98961.06
2022-10-18T05:23:16.164Z,98976.84
2022-10-18T05:25:43.848Z,98970.59
2022-10-18T05:28:34.124Z,98975.78
2022-10-18T05:31:02.829Z,98971.34
2022-10-18T05:33:30.359Z,98963.63
2022-10-18T05:35:57.734Z,98969.94
2022-10-18T05:38:25.791Z,98966.22
2022-10-18T05:40:53.063Z,98958.63
2022-10-18T05:43:20.222Z,98946.03
2022-10-18T05:45:48.996Z,98949.03
2022-10-18T05:48:16.444Z,98959.50
2022-10-18T05:50:44.155Z,98967.78
2022-10-18T05:53:24.743Z,98962.25
2022-10-18T05:56:02.517Z,98972.16
2022-10-18T05:58:29.786Z,98965.69
2022-10-18T06:01:01.023Z,98962.41
2022-10-18T06:03:28.464Z,98951.34
2022-10-18T06:06:06.015Z,98956.75
2022-10-18T06:08:34.068Z,98950.19
2022-10-18T06:11:15.612Z,98955.41
2022-10-18T06:13:44.380Z,98954.34
2022-10-18T06:16:12.383Z,98957.53
2022-10-18T06:18:40.494Z,98951.19
2022-10-18T06:21:08.584Z,98954.91
2022-10-18T06:23:35.911Z,98958.63
2022-10-18T06:26:06.739Z,98966.16
2022-10-18T06:28:35.457Z,98969.31
2022-10-18T06:31:03.260Z,98977.50
2022-10-18T06:33:31.165Z,98975.69
2022-10-18T06:36:00.160Z,98963.63
2022-10-18T06:38:28.736Z,98956.31
2022-10-18T06:40:56.943Z,98957.28
2022-10-18T06:43:24.383Z,98959.75
2022-10-18T06:45:52.399Z,98963.66
2022-10-18T06:50:57.106Z,98956.78
2022-10-18T06:53:25.744Z,98960.47
2022-10-18T06:55:53.691Z,98965.25
2022-10-18T06:58:21.039Z,98962.50
2022-10-18T07:00:48.278Z,98952.41
2022-10-18T07:03:15.472Z,98955.16
2022-10-18T07:05:42.625Z,98948.09
2022-10-18T07:08:09.795Z,98951.78
2022-10-18T07:10:37.050Z,98958.03
2022-10-18T07:13:30.454Z,98953.50
2022-10-18T07:16:20.803Z,98958.72
2022-10-18T07:18:49.918Z,98961.69
2022-10-18T07:21:21.920Z,98972.41
2022-10-18T07:23:49.956Z,98976.84
2022-10-18T07:26:29.203Z,98971.53
2022-10-18T07:28:59.083Z,98955.75
2022-10-18T07:31:26.505Z,98953.00
2022-10-18T07:33:53.675Z,98938.69
2022-10-18T07:36:22.232Z,98934.84
2022-10-18T07:38:50.040Z,98936.13
2022-10-18T07:41:17.247Z,98929.34
2022-10-18T07:43:47.202Z,98909.50
2022-10-18T07:46:15.523Z,98917.88
2022-10-18T07:48:42.867Z,98908.31
2022-10-18T07:51:10.557Z,98903.25
2022-10-18T07:53:38.091Z,98900.38
2022-10-18T07:56:15.825Z,98906.84
2022-10-18T07:58:44.307Z,98903.53
2022-10-18T08:01:12.393Z,98903.19
2022-10-18T08:03:40.540Z,98897.25
2022-10-18T08:06:09.601Z,98901.25
2022-10-18T08:08:38.188Z,98894.72
2022-10-18T08:11:08.888Z,98893.84
2022-10-18T08:13:36.286Z,98896.50
2022-10-18T08:16:06.144Z,98893.59
2022-10-18T08:18:33.335Z,98889.41
2022-10-18T08:21:01.312Z,98888.00
2022-10-18T08:23:28.615Z,98879.72
2022-10-18T08:25:55.759Z,98876.84
2022-10-18T08:28:23.050Z,98870.22
2022-10-18T08:30:50.162Z,98863.66
2022-10-18T08:33:17.410Z,98877.25
2022-10-18T08:35:55.025Z,98868.75
2022-10-18T08:38:22.164Z,98865.81
2022-10-18T08:40:49.773Z,98865.25
2022-10-18T08:43:26.408Z,98859.19
2022-10-18T08:45:54.380Z,98853.88
2022-10-18T08:48:30.675Z,98861.84
2022-10-18T08:50:58.498Z,98852.34
2022-10-18T08:53:51.875Z,98850.19
2022-10-18T08:56:24.096Z,98845.97
2022-10-18T08:58:51.315Z,98848.03
2022-10-18T09:01:27.478Z,98852.16
2022-10-18T09:04:10.290Z,98850.53
2022-10-18T09:06:52.646Z,98851.84
2022-10-18T09:09:39.012Z,98846.72
2022-10-18T09:12:19.075Z,98850.44
2022-10-18T09:15:07.803Z,98841.13
2022-10-18T09:17:48.342Z,98855.91
2022-10-18T09:20:22.975Z,98853.53
2022-10-18T09:23:05.256Z,98852.09
2022-10-18T09:25:37.421Z,98850.69
2022-10-18T09:28:24.561Z,98850.34
2022-10-18T09:31:05.642Z,98859.59
2022-10-18T09:33:43.443Z,98850.41
2022-10-18T09:36:21.205Z,98855.97
2022-10-18T09:38:50.922Z,98856.00
2022-10-18T09:41:39.543Z,98863.38
2022-10-18T09:44:10.869Z,98881.16
2022-10-18T09:46:45.565Z,98875.59
2022-10-18T09:49:37.513Z,98885.91
2022-10-18T09:52:09.236Z,98903.66
2022-10-18T09:54:42.302Z,98901.44
2022-10-18T09:57:12.093Z,98905.69
2022-10-18T09:59:50.355Z,98906.78
2022-10-18T10:02:22.898Z,98916.03
2022-10-18T10:04:51.112Z,98932.13
2022-10-18T10:07:32.546Z,98928.44
2022-10-18T10:10:09.019Z,98940.97
2022-10-18T10:12:38.228Z,98943.00
2022-10-18T10:15:23.202Z,98951.66
2022-10-18T10:17:57.439Z,98955.16
2022-10-18T10:20:34.239Z,98957.00
2022-10-18T10:23:07.853Z,98956.25
2022-10-18T10:25:38.244Z,98953.97
2022-10-18T10:28:12.031Z,98949.00
2022-10-18T10:30:39.220Z,98960.44
2022-10-18T10:33:06.959Z,98966.31
2022-10-18T10:35:52.973Z,98961.91
2022-10-18T10:38:28.491Z,98962.63
2022-10-18T10:40:56.123Z,98961.47
2022-10-18T10:43:42.794Z,98958.47
2022-10-18T10:46:12.366Z,98972.06
2022-10-18T10:48:46.093Z,98971.69
2022-10-18T10:51:14.286Z,98970.19
2022-10-18T10:54:22.104Z,98964.75
2022-10-18T10:57:00.463Z,98969.09
2022-10-18T10:59:31.435Z,98969.41
2022-10-18T11:02:14.094Z,98967.69
2022-10-18T11:04:42.168Z,98976.25
2022-10-18T11:07:09.231Z,98972.56
2022-10-18T11:09:43.669Z,98970.16
2022-10-18T11:12:16.560Z,98970.16
2022-10-18T11:14:47.159Z,98975.81
2022-10-18T11:17:26.659Z,98985.38
2022-10-18T11:20:07.133Z,98982.63
2022-10-18T11:22:38.721Z,98984.63
2022-10-18T11:25:06.056Z,98980.59
2022-10-18T11:27:40.590Z,98987.06
2022-10-18T11:30:27.318Z,98990.34
2022-10-18T11:33:10.655Z,98986.66
2022-10-18T11:35:49.817Z,98977.09
2022-10-18T11:38:24.680Z,98980.41
2022-10-18T11:41:06.761Z,98974.59
2022-10-18T11:44:02.716Z,98970.88
2022-10-18T11:46:50.465Z,98968.47
2022-10-18T11:49:35.936Z,98964.56
2022-10-18T11:52:24.261Z,98964.69
2022-10-18T11:55:03.206Z,98968.53
2022-10-18T11:57:55.796Z,98976.94
2022-10-18T12:00:29.196Z,98982.63
2022-10-18T12:03:12.331Z,98976.88
2022-10-18T12:05:41.427Z,98981.44
2022-10-18T12:08:11.077Z,98982.50
2022-10-18T12:10:46.134Z,98991.34
2022-10-18T12:13:39.562Z,98994.09
2022-10-18T12:16:08.183Z,98997.78
2022-10-18T12:18:36.896Z,99000.00
2022-10-18T12:21:05.471Z,98998.75
2022-10-18T12:23:35.033Z,98986.44
2022-10-18T12:26:07.459Z,98984.41
2022-10-18T12:28:41.562Z,98992.19
2022-10-18T12:31:15.735Z,98987.72
2022-10-18T12:33:46.758Z,98994.50
2022-10-18T12:36:13.878Z,98990.59
2022-10-18T12:38:42.885Z,98997.72
2022-10-18T12:41:20.636Z,99005.56
2022-10-18T12:43:53.386Z,99005.72
2022-10-18T12:46:21.312Z,98999.22
2022-10-18T12:49:04.057Z,98994.03
2022-10-18T12:51:31.585Z,98985.56
2022-10-18T12:54:01.670Z,98996.72
2022-10-18T12:56:28.732Z,98996.09
2022-10-18T12:59:18.758Z,99004.16
2022-10-18T13:01:54.769Z,99015.19
2022-10-18T13:04:28.107Z,99008.19
2022-10-18T13:06:58.160Z,99004.16
2022-10-18T13:09:37.248Z,99003.63
2022-10-18T13:12:10.444Z,98994.81
2022-10-18T13:15:25.607Z,99002.03
2022-10-18T13:18:01.518Z,98998.53
2022-10-18T13:20:38.464Z,98996.72
2022-10-18T13:23:20.918Z,98989.16
2022-10-18T13:25:56.819Z,98988.88
2022-10-18T13:28:31.280Z,98990.88
2022-10-18T13:31:22.380Z,98981.31
2022-10-18T13:33:49.765Z,98974.53
2022-10-18T13:36:22.499Z,98975.25
2022-10-18T13:38:53.655Z,98970.88
2022-10-18T13:44:02.400Z,98991.38
2022-10-18T13:46:32.871Z,98992.84
2022-10-18T13:49:29.184Z,98995.81
2022-10-18T13:52:14.838Z,98988.59
2022-10-18T13:55:00.488Z,99003.88
2022-10-18T13:57:49.009Z,99003.34
2022-10-18T14:00:26.378Z,98994.31
2022-10-18T14:03:31.712Z,98996.69
2022-10-18T14:06:24.109Z,99002.75
2022-10-18T14:09:25.414Z,99005.50
2022-10-18T14:12:23.078Z,99006.25
2022-10-18T14:14:55.671Z,99002.75
2022-10-18T14:17:30.461Z,99006.44
2022-10-18T14:20:27.233Z,99005.38
2022-10-18T14:23:12.932Z,99009.59
2022-10-18T14:25:40.253Z,99009.59
2022-10-18T14:28:17.321Z,99003.56
2022-10-18T14:30:58.995Z,99017.03
2022-10-18T14:33:29.229Z,99019.06
2022-10-18T14:36:03.103Z,99020.00
2022-10-18T14:38:30.427Z,99027.66
2022-10-18T14:41:15.570Z,99025.03
2022-10-18T14:43:43.899Z,99033.84
2022-10-18T14:46:16.355Z,99033.13
2022-10-18T14:48:58.403Z,99035.09
2022-10-18T14:51:27.417Z,99027.38
2022-10-18T14:53:55.070Z,99024.41
2022-10-18T14:56:32.970Z,99017.59
2022-10-18T14:59:05.416Z,99032.69
2022-10-18T15:01:32.934Z,99036.19
2022-10-18T15:04:02.414Z,99029.38
2022-10-18T15:06:29.666Z,99032.47
2022-10-18T15:08:58.134Z,99041.31
2022-10-18T15:11:26.497Z,99041.81
2022-10-18T15:13:55.878Z,99034.06
2022-10-18T15:16:28.288Z,99041.06
2022-10-18T15:19:07.069Z,99044.56
2022-10-18T15:21:36.114Z,99045.31
2022-10-18T15:24:19.692Z,99055.09
2022-10-18T15:26:47.705Z,99048.06
2022-10-18T15:29:21.997Z,99045.31
2022-10-18T15:31:49.792Z,99040.88
2022-10-18T15:34:20.788Z,99037.38
2022-10-18T15:36:49.443Z,99036.63
2022-10-18T15:39:24.940Z,99044.38
2022-10-18T15:41:56.265Z,99047.13
2022-10-18T15:44:25.229Z,99046.19
2022-10-18T15:46:55.426Z,99056.06
2022-10-18T15:49:25.155Z,99058.94
2022-10-18T15:52:32.568Z,99050.44
2022-10-18T15:55:31.109Z,99051.19
2022-10-18T15:58:15.023Z,99055.22
2022-10-18T16:00:43.958Z,99057.03
2022-10-18T16:03:11.310Z,99055.53
2022-10-18T16:05:39.086Z,99064.34
2022-10-18T16:08:06.402Z,99061.59
2022-10-18T16:10:33.560Z,99061.91
2022-10-18T16:13:00.689Z,99064.88
2022-10-18T16:15:27.797Z,99066.88
2022-10-18T16:17:54.899Z,99074.97
2022-10-18T16:20:24.628Z,99080.06
2022-10-18T16:22:51.812Z,99083.34
2022-10-18T16:25:18.998Z,99078.34
2022-10-18T16:27:46.133Z,99077.59
2022-10-18T16:30:15.402Z,99073.38
2022-10-18T16:32:42.578Z,99074.44
2022-10-18T16:35:12.085Z,99078.03
2022-10-18T16:37:39.898Z,99081.22
2022-10-18T16:40:34.621Z,99094.34
2022-10-18T16:43:04.071Z,99085.66
2022-10-18T16:45:31.335Z,99089.47
2022-10-18T16:47:58.470Z,99082.34
2022-10-18T16:50:25.602Z,99085.94
2022-10-18T16:52:52.740Z,99085.22
2022-10-18T16:55:24.996Z,99082.00
2022-10-18T16:57:52.262Z,99086.03
2022-10-18T17:00:22.121Z,99089.59
2022-10-18T17:02:49.953Z,99087.69
2022-10-18T17:05:18.205Z,99086.50
2022-10-18T17:07:45.782Z,99096.56
2022-10-18T17:10:17.706Z,99100.81
2022-10-18T17:12:45.101Z,99096.03
2022-10-18T17:15:12.829Z,99102.06
2022-10-18T17:17:39.971Z,99105.38
2022-10-18T17:20:08.156Z,99112.88
2022-10-18T17:22:35.339Z,99101.13
2022-10-18T17:25:02.458Z,99107.13
2022-10-18T17:27:29.711Z,99108.41
2022-10-18T17:29:57.646Z,99117.19
2022-10-18T17:32:24.838Z,99120.69
2022-10-18T17:34:52.055Z,99122.94
2022-10-18T17:37:19.177Z,99120.69
2022-10-18T17:39:46.404Z,99116.47
2022-10-18T17:42:13.582Z,99121.97
2022-10-18T17:44:40.803Z,99126.75
2022-10-18T17:47:08.763Z,99133.00
2022-10-18T17:49:35.939Z,99126.94
2022-10-18T17:52:06.890Z,99125.47
2022-10-18T17:54:34.341Z,99121.75
2022-10-18T17:57:01.509Z,99130.03
2022-10-18T17:59:29.011Z,99125.53
2022-10-18T18:01:56.135Z,99122.16
2022-10-18T18:04:24.541Z,99122.22
2022-10-18T18:06:52.970Z,99125.50
2022-10-18T18:09:21.170Z,99129.28
2022-10-18T18:11:49.385Z,99134.88
2022-10-18T18:14:16.618Z,99128.53
2022-10-18T18:16:45.920Z,99128.78
2022-10-18T18:19:13.913Z,99128.69
2022-10-18T18:21:41.734Z,99124.66
2022-10-18T18:24:10.235Z,99112.47
2022-10-18T18:26:38.832Z,99113.81
2022-10-18T18:29:06.133Z,99119.84
2022-10-18T18:31:38.795Z,99127.59
2022-10-18T18:34:10.008Z,99115.50
2022-10-18T18:36:37.635Z,99123.28
2022-10-18T18:39:05.769Z,99117.25
2022-10-18T18:41:33.167Z,99116.72
2022-10-18T18:44:05.132Z,99113.44
2022-10-18T18:46:37.331Z,99120.63
2022-10-18T18:49:06.181Z,99117.38
2022-10-18T18:51:33.530Z,99122.34
2022-10-18T18:54:00.822Z,99118.34
2022-10-18T18:56:29.101Z,99107.53
2022-10-18T18:58:58.729Z,99111.75
2022-10-18T19:01:36.557Z,99109.75
2022-10-18T19:04:05.086Z,99112.28
2022-10-18T19:06:41.478Z,99118.03
2022-10-18T19:09:21.939Z,99112.50
2022-10-18T19:11:52.597Z,99118.03
2022-10-18T19:16:59.025Z,99107.31
2022-10-18T19:19:27.918Z,99104.56
2022-10-18T19:22:03.683Z,99105.84
2022-10-18T19:24:31.279Z,99106.84
2022-10-18T19:27:04.111Z,99107.09
2022-10-18T19:29:33.690Z,99114.84
2022-10-18T19:32:04.007Z,99110.50
2022-10-18T19:34:32.158Z,99105.75
2022-10-18T19:36:59.319Z,99108.50
2022-10-18T19:39:29.534Z,99121.00
2022-10-18T19:41:58.475Z,99107.66
2022-10-18T19:44:28.352Z,99114.75
2022-10-18T19:46:55.799Z,99117.72
2022-10-18T19:49:23.107Z,99129.19
2022-10-18T19:51:50.224Z,99130.44
2022-10-18T19:54:17.639Z,99128.69
2022-10-18T19:56:44.844Z,99130.16
2022-10-18T19:59:13.412Z,99130.38
2022-10-18T20:01:41.034Z,99139.59
2022-10-18T20:04:08.926Z,99136.31
2022-10-18T20:06:37.171Z,99138.56
2022-10-18T20:09:06.009Z,99139.31
2022-10-18T20:11:33.598Z,99137.06
2022-10-18T20:14:00.904Z,99147.66
2022-10-18T20:16:30.467Z,99143.41
2022-10-18T20:18:59.378Z,99142.13
2022-10-18T20:21:27.616Z,99146.16
2022-10-18T20:23:55.083Z,99141.69
2022-10-18T20:26:22.704Z,99139.47
2022-10-18T20:28:57.389Z,99144.00
2022-10-18T20:31:27.217Z,99152.28
2022-10-18T20:33:56.699Z,99154.81
2022-10-18T20:36:24.126Z,99166.13
2022-10-18T20:38:51.311Z,99163.69
2022-10-18T20:41:24.808Z,99157.22
2022-10-18T20:43:56.928Z,99147.97
2022-10-18T20:46:24.685Z,99151.56
2022-10-18T20:48:52.420Z,99143.78
2022-10-18T20:51:20.522Z,99142.16
2022-10-18T20:53:47.721Z,99140.69
2022-10-18T20:56:22.717Z,99143.97
2022-10-18T20:58:51.624Z,99138.97
2022-10-18T21:01:30.295Z,99137.50
2022-10-18T21:04:05.524Z,99126.22
2022-10-18T21:06:43.199Z,99129.50
2022-10-18T21:09:15.980Z,99133.09
2022-10-18T21:11:45.811Z,99129.38
2022-10-18T21:14:15.303Z,99142.16
2022-10-18T21:16:43.753Z,99145.44
2022-10-18T21:19:17.412Z,99144.97
2022-10-18T21:21:47.157Z,99148.25
2022-10-18T21:24:14.726Z,99142.81
2022-10-18T21:26:41.887Z,99150.41
2022-10-18T21:29:11.022Z,99135.75
2022-10-18T21:31:40.210Z,99135.28
2022-10-18T21:34:12.891Z,99137.34
2022-10-18T21:36:41.067Z,99132.38
2022-10-18T21:39:11.230Z,99139.44
2022-10-18T21:41:38.330Z,99139.97
2022-10-18T21:44:08.391Z,99130.19
2022-10-18T21:46:39.419Z,99132.19
2022-10-18T21:49:07.306Z,99133.78
2022-10-18T21:51:34.674Z,99127.25
2022-10-18T21:54:01.997Z,99118.78
2022-10-18T21:56:31.846Z,99130.31
2022-10-18T21:58:59.420Z,99129.84
2022-10-18T22:01:37.104Z,99133.41
2022-10-18T22:04:06.834Z,99137.69
2022-10-18T22:09:06.249Z,99133.75
2022-10-18T22:11:36.390Z,99134.50
2022-10-18T22:14:03.745Z,99137.25
2022-10-18T22:16:30.838Z,99115.50
2022-10-18T22:18:59.763Z,99119.53
2022-10-18T22:21:27.777Z,99117.50
2022-10-18T22:23:59.332Z,99117.78
2022-10-18T22:26:32.567Z,99119.25
2022-10-18T22:29:08.628Z,99125.19
2022-10-18T22:31:37.311Z,99126.69
2022-10-18T22:34:11.072Z,99132.19
2022-10-18T22:36:38.592Z,99140.72
2022-10-18T22:39:06.779Z,99136.19
2022-10-18T22:41:34.847Z,99124.19
2022-10-18T22:44:03.671Z,99116.59
2022-10-18T22:46:32.680Z,99130.31
2022-10-18T22:49:00.410Z,99138.53
2022-10-18T22:51:27.605Z,99131.97
2022-10-18T22:53:54.803Z,99134.00
2022-10-18T22:56:22.830Z,99131.75
2022-10-18T22:58:50.576Z,99127.53
2022-10-18T23:01:20.332Z,99122.75
2022-10-18T23:03:52.411Z,99123.50
2022-10-18T23:06:34.286Z,99122.75
2022-10-18T23:09:06.034Z,99129.00
2022-10-18T23:11:34.102Z,99127.03
2022-10-18T23:14:03.785Z,99119.06
2022-10-18T23:16:31.376Z,99129.34
2022-10-18T23:18:59.332Z,99125.38
2022-10-18T23:21:28.102Z,99133.41
2022-10-18T23:23:55.933Z,99139.47
2022-10-18T23:26:25.192Z,99141.53
2022-10-18T23:28:53.156Z,99146.78
2022-10-18T23:31:29.527Z,99143.81
2022-10-18T23:33:59.069Z,99141.81
2022-10-18T23:36:27.006Z,99145.81
2022-10-18T23:38:54.505Z,99146.63
2022-10-18T23:41:21.923Z,99153.41
2022-10-18T23:43:49.123Z,99144.19
2022-10-18T23:46:17.289Z,99144.50
2022-10-18T23:48:44.958Z,99145.72
2022-10-18T23:51:12.183Z,99147.00
2022-10-18T23:53:39.751Z,99147.25
2022-10-18T23:56:09.634Z,99156.22
2022-10-18T23:58:37.331Z,99151.97
